sensor_id;sensor_type;location;lat;lon;timestamp;P1;durP1;ratioP1;P2;durP2;ratioP2
7377;SDS011;3730;50.856;12.776;2022-11-15T00:01:51;9.90;;;6.70;;
7377;SDS011;3730;50.856;12.776;2022-11-15T00:04:17;8.07;;;6.27;;
7377;SDS011;3730;50.856;12.776;2022-11-15T00:06:43;7.03;;;5.70;;
7377;SDS011;3730;50.856;12.776;2022-11-15T00:09:09;5.90;;;5.30;;
7377;SDS011;3730;50.856;12.776;2022-11-15T00:11:35;5.63;;;4.83;;
7377;SDS011;3730;50.856;12.776;2022-11-15T00:14:01;7.13;;;5.30;;
7377;SDS011;3730;50.856;12.776;2022-11-15T00:16:27;5.93;;;5.00;;
7377;SDS011;3730;50.856;12.776;2022-11-15T00:18:53;6.57;;;4.90;;
7377;SDS011;3730;50.856;12.776;2022-11-15T00:21:19;7.23;;;5.53;;
7377;SDS011;3730;50.856;12.776;2022-11-15T00:23:45;7.40;;;5.47;;
7377;SDS011;3730;50.856;12.776;2022-11-15T00:26:12;7.20;;;5.73;;
7377;SDS011;3730;50.856;12.776;2022-11-15T00:28:39;6.73;;;5.50;;
7377;SDS011;3730;50.856;12.776;2022-11-15T00:31:06;8.63;;;5.80;;
7377;SDS011;3730;50.856;12.776;2022-11-15T00:33:33;9.07;;;6.87;;
7377;SDS011;3730;50.856;12.776;2022-11-15T00:36:06;6.77;;;5.77;;
7377;SDS011;3730;50.856;12.776;2022-11-15T00:38:34;6.27;;;5.50;;
7377;SDS011;3730;50.856;12.776;2022-11-15T00:41:01;5.80;;;5.20;;
7377;SDS011;3730;50.856;12.776;2022-11-15T00:43:27;7.53;;;5.50;;
7377;SDS011;3730;50.856;12.776;2022-11-15T00:45:53;6.40;;;5.70;;
7377;SDS011;3730;50.856;12.776;2022-11-15T00:48:19;6.93;;;5.90;;
7377;SDS011;3730;50.856;12.776;2022-11-15T00:50:45;8.17;;;6.17;;
7377;SDS011;3730;50.856;12.776;2022-11-15T00:53:11;6.00;;;4.97;;
7377;SDS011;3730;50.856;12.776;2022-11-15T00:55:37;5.90;;;5.27;;
7377;SDS011;3730;50.856;12.776;2022-11-15T00:58:03;5.97;;;5.27;;
7377;SDS011;3730;50.856;12.776;2022-11-15T01:00:29;5.37;;;4.70;;
7377;SDS011;3730;50.856;12.776;2022-11-15T01:02:55;5.60;;;5.00;;
7377;SDS011;3730;50.856;12.776;2022-11-15T01:05:21;7.00;;;5.00;;
7377;SDS011;3730;50.856;12.776;2022-11-15T01:07:51;5.50;;;4.90;;
7377;SDS011;3730;50.856;12.776;2022-11-15T01:10:17;7.27;;;5.70;;
7377;SDS011;3730;50.856;12.776;2022-11-15T01:12:43;5.50;;;4.90;;
7377;SDS011;3730;50.856;12.776;2022-11-15T01:15:09;7.40;;;5.07;;
7377;SDS011;3730;50.856;12.776;2022-11-15T01:17:35;6.47;;;5.10;;
7377;SDS011;3730;50.856;12.776;2022-11-15T01:20:02;6.03;;;4.70;;
7377;SDS011;3730;50.856;12.776;2022-11-15T01:22:28;5.93;;;4.93;;
7377;SDS011;3730;50.856;12.776;2022-11-15T01:24:54;6.87;;;5.10;;
7377;SDS011;3730;50.856;12.776;2022-11-15T01:27:20;6.93;;;5.33;;
7377;SDS011;3730;50.856;12.776;2022-11-15T01:29:46;5.43;;;4.90;;
7377;SDS011;3730;50.856;12.776;2022-11-15T01:32:12;6.63;;;5.50;;
7377;SDS011;3730;50.856;12.776;2022-11-15T01:34:38;6.57;;;5.43;;
7377;SDS011;3730;50.856;12.776;2022-11-15T01:37:04;7.27;;;5.63;;
7377;SDS011;3730;50.856;12.776;2022-11-15T01:39:30;6.83;;;6.10;;
7377;SDS011;3730;50.856;12.776;2022-11-15T01:41:56;6.30;;;5.50;;
7377;SDS011;3730;50.856;12.776;2022-11-15T01:46:57;8.63;;;5.63;;
7377;SDS011;3730;50.856;12.776;2022-11-15T01:49:24;7.60;;;5.60;;
7377;SDS011;3730;50.856;12.776;2022-11-15T01:51:52;6.10;;;5.03;;
7377;SDS011;3730;50.856;12.776;2022-11-15T01:54:19;6.33;;;5.43;;
7377;SDS011;3730;50.856;12.776;2022-11-15T01:56:48;8.90;;;6.07;;
7377;SDS011;3730;50.856;12.776;2022-11-15T01:59:15;5.80;;;5.20;;
7377;SDS011;3730;50.856;12.776;2022-11-15T02:01:41;6.97;;;5.20;;
7377;SDS011;3730;50.856;12.776;2022-11-15T02:04:10;6.77;;;5.17;;
7377;SDS011;3730;50.856;12.776;2022-11-15T02:06:37;5.47;;;4.87;;
7377;SDS011;3730;50.856;12.776;2022-11-15T02:09:03;6.07;;;4.80;;
7377;SDS011;3730;50.856;12.776;2022-11-15T02:11:29;5.23;;;4.73;;
7377;SDS011;3730;50.856;12.776;2022-11-15T02:13:56;6.50;;;4.50;;
7377;SDS011;3730;50.856;12.776;2022-11-15T02:16:33;5.13;;;4.23;;
7377;SDS011;3730;50.856;12.776;2022-11-15T02:21:36;4.70;;;4.13;;
7377;SDS011;3730;50.856;12.776;2022-11-15T02:32:06;5.00;;;4.40;;
7377;SDS011;3730;50.856;12.776;2022-11-15T02:34:35;6.00;;;4.13;;
7377;SDS011;3730;50.856;12.776;2022-11-15T02:37:07;4.30;;;3.90;;
7377;SDS011;3730;50.856;12.776;2022-11-15T02:42:23;6.53;;;3.70;;
7377;SDS011;3730;50.856;12.776;2022-11-15T02:45:11;4.07;;;3.63;;
7377;SDS011;3730;50.856;12.776;2022-11-15T02:47:41;5.43;;;3.70;;
7377;SDS011;3730;50.856;12.776;2022-11-15T02:50:10;4.67;;;3.77;;
7377;SDS011;3730;50.856;12.776;2022-11-15T02:52:36;4.93;;;3.60;;
7377;SDS011;3730;50.856;12.776;2022-11-15T02:55:02;4.07;;;3.63;;
7377;SDS011;3730;50.856;12.776;2022-11-15T03:05:42;6.67;;;5.10;;
7377;SDS011;3730;50.856;12.776;2022-11-15T03:08:10;6.23;;;5.03;;
7377;SDS011;3730;50.856;12.776;2022-11-15T03:13:46;6.47;;;4.90;;
7377;SDS011;3730;50.856;12.776;2022-11-15T03:18:53;6.30;;;4.83;;
7377;SDS011;3730;50.856;12.776;2022-11-15T03:21:20;6.83;;;5.40;;
7377;SDS011;3730;50.856;12.776;2022-11-15T03:23:47;6.20;;;5.10;;
7377;SDS011;3730;50.856;12.776;2022-11-15T03:26:14;9.07;;;5.60;;
7377;SDS011;3730;50.856;12.776;2022-11-15T03:31:08;6.67;;;4.87;;
7377;SDS011;3730;50.856;12.776;2022-11-15T03:33:54;6.17;;;4.27;;
7377;SDS011;3730;50.856;12.776;2022-11-15T03:36:21;6.10;;;4.43;;
7377;SDS011;3730;50.856;12.776;2022-11-15T03:38:48;7.93;;;4.13;;
7377;SDS011;3730;50.856;12.776;2022-11-15T03:41:20;5.53;;;3.73;;
7377;SDS011;3730;50.856;12.776;2022-11-15T03:46:14;3.70;;;3.40;;
7377;SDS011;3730;50.856;12.776;2022-11-15T03:48:43;5.50;;;3.60;;
7377;SDS011;3730;50.856;12.776;2022-11-15T03:51:10;4.80;;;3.43;;
7377;SDS011;3730;50.856;12.776;2022-11-15T03:53:36;4.60;;;4.00;;
7377;SDS011;3730;50.856;12.776;2022-11-15T03:56:02;4.67;;;3.70;;
7377;SDS011;3730;50.856;12.776;2022-11-15T03:58:28;4.13;;;3.33;;
7377;SDS011;3730;50.856;12.776;2022-11-15T04:00:54;4.30;;;3.23;;
7377;SDS011;3730;50.856;12.776;2022-11-15T04:03:20;3.47;;;3.17;;
7377;SDS011;3730;50.856;12.776;2022-11-15T04:05:46;3.90;;;3.47;;
7377;SDS011;3730;50.856;12.776;2022-11-15T04:08:12;5.00;;;3.30;;
7377;SDS011;3730;50.856;12.776;2022-11-15T04:10:38;3.27;;;2.87;;
7377;SDS011;3730;50.856;12.776;2022-11-15T04:13:04;4.10;;;3.10;;
7377;SDS011;3730;50.856;12.776;2022-11-15T04:15:30;4.10;;;3.00;;
7377;SDS011;3730;50.856;12.776;2022-11-15T04:17:56;5.73;;;3.40;;
7377;SDS011;3730;50.856;12.776;2022-11-15T04:20:24;3.40;;;3.10;;
7377;SDS011;3730;50.856;12.776;2022-11-15T04:23:10;3.67;;;3.30;;
7377;SDS011;3730;50.856;12.776;2022-11-15T04:25:55;5.83;;;3.40;;
7377;SDS011;3730;50.856;12.776;2022-11-15T04:28:21;4.30;;;3.10;;
7377;SDS011;3730;50.856;12.776;2022-11-15T04:30:47;3.53;;;3.00;;
7377;SDS011;3730;50.856;12.776;2022-11-15T04:33:13;3.90;;;3.50;;
7377;SDS011;3730;50.856;12.776;2022-11-15T04:35:40;4.90;;;3.30;;
7377;SDS011;3730;50.856;12.776;2022-11-15T04:38:07;6.13;;;3.30;;
7377;SDS011;3730;50.856;12.776;2022-11-15T04:40:34;3.87;;;3.47;;
7377;SDS011;3730;50.856;12.776;2022-11-15T04:43:00;4.47;;;3.17;;
7377;SDS011;3730;50.856;12.776;2022-11-15T04:45:26;5.30;;;3.83;;
7377;SDS011;3730;50.856;12.776;2022-11-15T04:47:52;5.67;;;3.73;;
7377;SDS011;3730;50.856;12.776;2022-11-15T04:50:18;3.73;;;3.10;;
7377;SDS011;3730;50.856;12.776;2022-11-15T04:52:50;4.73;;;3.17;;
7377;SDS011;3730;50.856;12.776;2022-11-15T04:55:16;3.47;;;2.87;;
7377;SDS011;3730;50.856;12.776;2022-11-15T04:57:42;4.33;;;3.80;;
7377;SDS011;3730;50.856;12.776;2022-11-15T05:00:10;4.37;;;2.90;;
7377;SDS011;3730;50.856;12.776;2022-11-15T05:02:36;3.63;;;3.20;;
7377;SDS011;3730;50.856;12.776;2022-11-15T05:05:21;3.77;;;3.20;;
7377;SDS011;3730;50.856;12.776;2022-11-15T05:07:47;3.70;;;3.40;;
7377;SDS011;3730;50.856;12.776;2022-11-15T05:10:13;5.60;;;3.37;;
7377;SDS011;3730;50.856;12.776;2022-11-15T05:12:39;4.90;;;3.20;;
7377;SDS011;3730;50.856;12.776;2022-11-15T05:15:05;3.53;;;3.20;;
7377;SDS011;3730;50.856;12.776;2022-11-15T05:17:32;4.20;;;3.47;;
7377;SDS011;3730;50.856;12.776;2022-11-15T05:19:58;3.50;;;3.20;;
7377;SDS011;3730;50.856;12.776;2022-11-15T05:22:24;10.40;;;3.53;;
7377;SDS011;3730;50.856;12.776;2022-11-15T05:24:50;5.17;;;3.00;;
7377;SDS011;3730;50.856;12.776;2022-11-15T05:27:16;4.53;;;3.20;;
7377;SDS011;3730;50.856;12.776;2022-11-15T05:29:42;3.80;;;3.00;;
7377;SDS011;3730;50.856;12.776;2022-11-15T05:32:08;3.83;;;3.37;;
7377;SDS011;3730;50.856;12.776;2022-11-15T05:34:35;2.90;;;2.70;;
7377;SDS011;3730;50.856;12.776;2022-11-15T05:37:01;3.70;;;3.00;;
7377;SDS011;3730;50.856;12.776;2022-11-15T05:39:27;5.30;;;3.40;;
7377;SDS011;3730;50.856;12.776;2022-11-15T05:42:00;6.40;;;3.20;;
7377;SDS011;3730;50.856;12.776;2022-11-15T05:44:28;4.67;;;3.17;;
7377;SDS011;3730;50.856;12.776;2022-11-15T05:46:54;5.10;;;3.40;;
7377;SDS011;3730;50.856;12.776;2022-11-15T05:49:23;3.70;;;2.90;;
7377;SDS011;3730;50.856;12.776;2022-11-15T05:51:50;3.30;;;3.00;;
7377;SDS011;3730;50.856;12.776;2022-11-15T05:54:17;5.27;;;3.27;;
7377;SDS011;3730;50.856;12.776;2022-11-15T05:56:43;6.57;;;3.63;;
7377;SDS011;3730;50.856;12.776;2022-11-15T05:59:09;5.47;;;3.53;;
7377;SDS011;3730;50.856;12.776;2022-11-15T06:01:36;8.33;;;3.80;;
7377;SDS011;3730;50.856;12.776;2022-11-15T06:04:03;5.40;;;3.53;;
7377;SDS011;3730;50.856;12.776;2022-11-15T06:06:29;3.20;;;2.90;;
7377;SDS011;3730;50.856;12.776;2022-11-15T06:08:55;3.07;;;2.73;;
7377;SDS011;3730;50.856;12.776;2022-11-15T06:11:21;3.57;;;2.73;;
7377;SDS011;3730;50.856;12.776;2022-11-15T06:13:47;3.07;;;2.60;;
7377;SDS011;3730;50.856;12.776;2022-11-15T06:16:13;7.93;;;3.47;;
7377;SDS011;3730;50.856;12.776;2022-11-15T06:18:39;7.27;;;4.17;;
7377;SDS011;3730;50.856;12.776;2022-11-15T06:21:05;7.33;;;3.00;;
7377;SDS011;3730;50.856;12.776;2022-11-15T06:23:32;3.37;;;3.07;;
7377;SDS011;3730;50.856;12.776;2022-11-15T06:25:58;3.87;;;3.30;;
7377;SDS011;3730;50.856;12.776;2022-11-15T06:28:26;8.07;;;3.67;;
7377;SDS011;3730;50.856;12.776;2022-11-15T06:30:53;3.40;;;3.10;;
7377;SDS011;3730;50.856;12.776;2022-11-15T06:33:19;3.53;;;2.80;;
7377;SDS011;3730;50.856;12.776;2022-11-15T06:35:45;6.33;;;3.23;;
7377;SDS011;3730;50.856;12.776;2022-11-15T06:38:11;3.47;;;3.00;;
7377;SDS011;3730;50.856;12.776;2022-11-15T06:40:39;6.50;;;3.40;;
7377;SDS011;3730;50.856;12.776;2022-11-15T06:43:05;4.27;;;3.10;;
7377;SDS011;3730;50.856;12.776;2022-11-15T06:45:32;3.50;;;2.70;;
7377;SDS011;3730;50.856;12.776;2022-11-15T06:47:58;3.93;;;2.30;;
7377;SDS011;3730;50.856;12.776;2022-11-15T06:50:24;3.77;;;2.70;;
7377;SDS011;3730;50.856;12.776;2022-11-15T06:52:50;5.00;;;3.30;;
7377;SDS011;3730;50.856;12.776;2022-11-15T06:55:16;9.23;;;5.77;;
7377;SDS011;3730;50.856;12.776;2022-11-15T06:57:51;7.43;;;4.73;;
7377;SDS011;3730;50.856;12.776;2022-11-15T07:00:21;6.67;;;4.47;;
7377;SDS011;3730;50.856;12.776;2022-11-15T07:02:47;6.47;;;4.23;;
7377;SDS011;3730;50.856;12.776;2022-11-15T07:05:14;6.27;;;4.10;;
7377;SDS011;3730;50.856;12.776;2022-11-15T07:07:40;5.03;;;3.57;;
7377;SDS011;3730;50.856;12.776;2022-11-15T07:10:08;6.50;;;3.60;;
7377;SDS011;3730;50.856;12.776;2022-11-15T07:12:34;4.10;;;2.60;;
7377;SDS011;3730;50.856;12.776;2022-11-15T07:15:00;7.27;;;3.20;;
7377;SDS011;3730;50.856;12.776;2022-11-15T07:17:26;2.87;;;2.60;;
7377;SDS011;3730;50.856;12.776;2022-11-15T07:19:52;3.07;;;2.53;;
7377;SDS011;3730;50.856;12.776;2022-11-15T07:22:18;2.50;;;2.27;;
7377;SDS011;3730;50.856;12.776;2022-11-15T07:24:44;2.33;;;2.13;;
7377;SDS011;3730;50.856;12.776;2022-11-15T07:27:10;2.27;;;2.03;;
7377;SDS011;3730;50.856;12.776;2022-11-15T07:29:36;3.33;;;2.10;;
7377;SDS011;3730;50.856;12.776;2022-11-15T07:32:02;3.50;;;2.07;;
7377;SDS011;3730;50.856;12.776;2022-11-15T07:34:28;3.00;;;2.43;;
7377;SDS011;3730;50.856;12.776;2022-11-15T07:36:54;2.57;;;2.30;;
7377;SDS011;3730;50.856;12.776;2022-11-15T07:39:20;2.60;;;2.40;;
7377;SDS011;3730;50.856;12.776;2022-11-15T07:41:46;3.97;;;2.43;;
7377;SDS011;3730;50.856;12.776;2022-11-15T07:44:13;5.00;;;2.50;;
7377;SDS011;3730;50.856;12.776;2022-11-15T07:46:39;5.00;;;2.80;;
7377;SDS011;3730;50.856;12.776;2022-11-15T07:49:05;2.37;;;2.17;;
7377;SDS011;3730;50.856;12.776;2022-11-15T07:51:31;2.50;;;2.30;;
7377;SDS011;3730;50.856;12.776;2022-11-15T07:53:57;2.47;;;2.27;;
7377;SDS011;3730;50.856;12.776;2022-11-15T07:56:23;2.83;;;2.53;;
7377;SDS011;3730;50.856;12.776;2022-11-15T07:58:49;3.67;;;2.40;;
7377;SDS011;3730;50.856;12.776;2022-11-15T08:01:15;3.43;;;2.27;;
7377;SDS011;3730;50.856;12.776;2022-11-15T08:03:41;2.73;;;1.93;;
7377;SDS011;3730;50.856;12.776;2022-11-15T08:06:07;4.07;;;2.23;;
7377;SDS011;3730;50.856;12.776;2022-11-15T08:08:33;2.50;;;2.20;;
7377;SDS011;3730;50.856;12.776;2022-11-15T08:10:59;2.93;;;2.07;;
7377;SDS011;3730;50.856;12.776;2022-11-15T08:13:25;3.77;;;2.60;;
7377;SDS011;3730;50.856;12.776;2022-11-15T08:15:51;3.60;;;2.33;;
7377;SDS011;3730;50.856;12.776;2022-11-15T08:18:17;3.93;;;2.50;;
7377;SDS011;3730;50.856;12.776;2022-11-15T08:20:43;5.83;;;3.10;;
7377;SDS011;3730;50.856;12.776;2022-11-15T08:23:10;3.17;;;2.23;;
7377;SDS011;3730;50.856;12.776;2022-11-15T08:25:37;3.23;;;2.27;;
7377;SDS011;3730;50.856;12.776;2022-11-15T08:28:04;2.53;;;2.07;;
7377;SDS011;3730;50.856;12.776;2022-11-15T08:30:33;4.37;;;3.00;;
7377;SDS011;3730;50.856;12.776;2022-11-15T08:33:01;7.33;;;3.43;;
7377;SDS011;3730;50.856;12.776;2022-11-15T08:35:27;7.93;;;5.63;;
7377;SDS011;3730;50.856;12.776;2022-11-15T08:37:53;6.80;;;4.40;;
7377;SDS011;3730;50.856;12.776;2022-11-15T08:40:20;4.10;;;3.00;;
7377;SDS011;3730;50.856;12.776;2022-11-15T08:42:46;4.93;;;3.00;;
7377;SDS011;3730;50.856;12.776;2022-11-15T08:45:12;2.93;;;2.40;;
7377;SDS011;3730;50.856;12.776;2022-11-15T08:47:38;3.30;;;2.63;;
7377;SDS011;3730;50.856;12.776;2022-11-15T08:50:04;6.63;;;2.73;;
7377;SDS011;3730;50.856;12.776;2022-11-15T08:52:31;3.27;;;2.37;;
7377;SDS011;3730;50.856;12.776;2022-11-15T08:54:57;2.53;;;2.23;;
7377;SDS011;3730;50.856;12.776;2022-11-15T08:57:23;7.70;;;3.40;;
7377;SDS011;3730;50.856;12.776;2022-11-15T08:59:49;3.30;;;2.40;;
7377;SDS011;3730;50.856;12.776;2022-11-15T09:02:15;2.20;;;2.00;;
7377;SDS011;3730;50.856;12.776;2022-11-15T09:04:42;5.10;;;2.53;;
7377;SDS011;3730;50.856;12.776;2022-11-15T09:07:09;2.87;;;2.27;;
7377;SDS011;3730;50.856;12.776;2022-11-15T09:09:35;3.43;;;2.23;;
7377;SDS011;3730;50.856;12.776;2022-11-15T09:12:01;15.73;;;5.43;;
7377;SDS011;3730;50.856;12.776;2022-11-15T09:14:27;10.73;;;5.00;;
7377;SDS011;3730;50.856;12.776;2022-11-15T09:16:53;4.47;;;2.57;;
7377;SDS011;3730;50.856;12.776;2022-11-15T09:19:20;4.13;;;2.63;;
7377;SDS011;3730;50.856;12.776;2022-11-15T09:21:46;4.10;;;2.30;;
7377;SDS011;3730;50.856;12.776;2022-11-15T09:24:12;2.67;;;2.17;;
7377;SDS011;3730;50.856;12.776;2022-11-15T09:26:38;4.60;;;2.57;;
7377;SDS011;3730;50.856;12.776;2022-11-15T09:29:04;3.03;;;2.40;;
7377;SDS011;3730;50.856;12.776;2022-11-15T09:31:30;2.60;;;2.30;;
7377;SDS011;3730;50.856;12.776;2022-11-15T09:33:56;2.37;;;2.17;;
7377;SDS011;3730;50.856;12.776;2022-11-15T09:36:22;7.03;;;3.53;;
7377;SDS011;3730;50.856;12.776;2022-11-15T09:38:48;5.20;;;3.60;;
7377;SDS011;3730;50.856;12.776;2022-11-15T09:51:27;15.83;;;5.07;;
7377;SDS011;3730;50.856;12.776;2022-11-15T09:53:56;5.10;;;2.70;;
7377;SDS011;3730;50.856;12.776;2022-11-15T09:56:27;2.90;;;2.60;;
7377;SDS011;3730;50.856;12.776;2022-11-15T09:58:57;2.57;;;2.20;;
7377;SDS011;3730;50.856;12.776;2022-11-15T10:04:09;3.10;;;2.10;;
7377;SDS011;3730;50.856;12.776;2022-11-15T10:06:36;4.00;;;2.13;;
7377;SDS011;3730;50.856;12.776;2022-11-15T10:09:12;2.33;;;2.13;;
7377;SDS011;3730;50.856;12.776;2022-11-15T10:11:40;3.40;;;2.30;;
7377;SDS011;3730;50.856;12.776;2022-11-15T10:14:17;2.63;;;2.03;;
7377;SDS011;3730;50.856;12.776;2022-11-15T10:17:06;3.23;;;2.40;;
7377;SDS011;3730;50.856;12.776;2022-11-15T10:19:35;3.63;;;2.17;;
7377;SDS011;3730;50.856;12.776;2022-11-15T10:22:16;2.10;;;1.90;;
7377;SDS011;3730;50.856;12.776;2022-11-15T10:24:45;2.50;;;2.00;;
7377;SDS011;3730;50.856;12.776;2022-11-15T10:27:13;2.03;;;1.53;;
7377;SDS011;3730;50.856;12.776;2022-11-15T10:29:46;4.70;;;2.23;;
7377;SDS011;3730;50.856;12.776;2022-11-15T10:32:13;3.03;;;1.90;;
7377;SDS011;3730;50.856;12.776;2022-11-15T10:34:39;3.60;;;2.00;;
7377;SDS011;3730;50.856;12.776;2022-11-15T10:37:05;2.57;;;2.00;;
7377;SDS011;3730;50.856;12.776;2022-11-15T10:39:31;4.20;;;2.30;;
7377;SDS011;3730;50.856;12.776;2022-11-15T10:42:17;2.87;;;2.30;;
7377;SDS011;3730;50.856;12.776;2022-11-15T10:44:43;2.40;;;2.07;;
7377;SDS011;3730;50.856;12.776;2022-11-15T10:47:29;4.33;;;2.00;;
7377;SDS011;3730;50.856;12.776;2022-11-15T10:50:00;5.53;;;1.97;;
7377;SDS011;3730;50.856;12.776;2022-11-15T10:52:26;3.27;;;2.90;;
7377;SDS011;3730;50.856;12.776;2022-11-15T10:57:20;6.17;;;3.10;;
7377;SDS011;3730;50.856;12.776;2022-11-15T10:59:51;4.73;;;3.13;;
7377;SDS011;3730;50.856;12.776;2022-11-15T11:04:52;4.77;;;2.90;;
7377;SDS011;3730;50.856;12.776;2022-11-15T11:07:22;4.07;;;3.27;;
7377;SDS011;3730;50.856;12.776;2022-11-15T11:09:56;3.10;;;2.53;;
7377;SDS011;3730;50.856;12.776;2022-11-15T11:12:26;3.00;;;2.70;;
7377;SDS011;3730;50.856;12.776;2022-11-15T11:14:53;7.57;;;2.80;;
7377;SDS011;3730;50.856;12.776;2022-11-15T11:20:33;3.90;;;2.70;;
7377;SDS011;3730;50.856;12.776;2022-11-15T11:25:50;3.57;;;2.83;;
7377;SDS011;3730;50.856;12.776;2022-11-15T11:28:30;6.93;;;3.13;;
7377;SDS011;3730;50.856;12.776;2022-11-15T11:31:06;6.80;;;3.60;;
7377;SDS011;3730;50.856;12.776;2022-11-15T11:41:20;5.40;;;3.23;;
7377;SDS011;3730;50.856;12.776;2022-11-15T11:44:06;5.27;;;3.37;;
7377;SDS011;3730;50.856;12.776;2022-11-15T11:49:36;4.33;;;2.90;;
7377;SDS011;3730;50.856;12.776;2022-11-15T11:54:39;5.60;;;3.03;;
7377;SDS011;3730;50.856;12.776;2022-11-15T11:57:12;5.33;;;3.10;;
7377;SDS011;3730;50.856;12.776;2022-11-15T11:59:47;3.13;;;2.40;;
7377;SDS011;3730;50.856;12.776;2022-11-15T12:02:15;2.93;;;2.40;;
7377;SDS011;3730;50.856;12.776;2022-11-15T12:04:44;5.03;;;2.93;;
7377;SDS011;3730;50.856;12.776;2022-11-15T12:07:13;7.00;;;2.90;;
7377;SDS011;3730;50.856;12.776;2022-11-15T12:09:41;3.77;;;2.73;;
7377;SDS011;3730;50.856;12.776;2022-11-15T12:17:01;10.57;;;2.47;;
7377;SDS011;3730;50.856;12.776;2022-11-15T12:19:28;4.20;;;2.50;;
7377;SDS011;3730;50.856;12.776;2022-11-15T12:24:38;5.00;;;2.73;;
7377;SDS011;3730;50.856;12.776;2022-11-15T12:27:19;3.23;;;2.17;;
7377;SDS011;3730;50.856;12.776;2022-11-15T12:29:47;6.73;;;2.23;;
7377;SDS011;3730;50.856;12.776;2022-11-15T12:32:30;5.90;;;2.47;;
7377;SDS011;3730;50.856;12.776;2022-11-15T12:34:57;7.27;;;2.50;;
7377;SDS011;3730;50.856;12.776;2022-11-15T12:42:41;6.27;;;2.50;;
7377;SDS011;3730;50.856;12.776;2022-11-15T12:45:24;2.40;;;1.70;;
7377;SDS011;3730;50.856;12.776;2022-11-15T12:47:50;3.97;;;1.87;;
7377;SDS011;3730;50.856;12.776;2022-11-15T12:50:16;3.93;;;2.20;;
7377;SDS011;3730;50.856;12.776;2022-11-15T12:55:50;5.97;;;2.60;;
7377;SDS011;3730;50.856;12.776;2022-11-15T13:04:43;4.73;;;2.70;;
7377;SDS011;3730;50.856;12.776;2022-11-15T13:06:52;2.57;;;1.87;;
7377;SDS011;3730;50.856;12.776;2022-11-15T13:12:48;3.27;;;2.00;;
7377;SDS011;3730;50.856;12.776;2022-11-15T13:14:50;6.13;;;2.60;;
7377;SDS011;3730;50.856;12.776;2022-11-15T13:19:45;3.87;;;2.20;;
7377;SDS011;3730;50.856;12.776;2022-11-15T13:22:12;4.50;;;2.30;;
7377;SDS011;3730;50.856;12.776;2022-11-15T13:24:56;3.83;;;2.40;;
7377;SDS011;3730;50.856;12.776;2022-11-15T13:27:23;12.90;;;6.60;;
7377;SDS011;3730;50.856;12.776;2022-11-15T13:29:49;8.33;;;4.63;;
7377;SDS011;3730;50.856;12.776;2022-11-15T13:32:15;7.93;;;3.43;;
7377;SDS011;3730;50.856;12.776;2022-11-15T13:34:48;7.20;;;3.37;;
7377;SDS011;3730;50.856;12.776;2022-11-15T13:39:47;7.90;;;4.30;;
7377;SDS011;3730;50.856;12.776;2022-11-15T13:42:22;5.23;;;3.07;;
7377;SDS011;3730;50.856;12.776;2022-11-15T13:45:00;4.00;;;2.97;;
7377;SDS011;3730;50.856;12.776;2022-11-15T13:47:28;10.20;;;3.60;;
7377;SDS011;3730;50.856;12.776;2022-11-15T13:49:56;6.63;;;2.27;;
7377;SDS011;3730;50.856;12.776;2022-11-15T13:52:22;7.10;;;2.37;;
7377;SDS011;3730;50.856;12.776;2022-11-15T13:55:02;10.83;;;2.87;;
7377;SDS011;3730;50.856;12.776;2022-11-15T13:57:36;14.73;;;4.10;;
7377;SDS011;3730;50.856;12.776;2022-11-15T14:00:04;8.73;;;3.63;;
7377;SDS011;3730;50.856;12.776;2022-11-15T14:02:32;7.80;;;3.47;;
7377;SDS011;3730;50.856;12.776;2022-11-15T14:05:17;7.47;;;3.10;;
7377;SDS011;3730;50.856;12.776;2022-11-15T14:07:54;6.97;;;3.00;;
7377;SDS011;3730;50.856;12.776;2022-11-15T14:12:51;5.17;;;2.97;;
7377;SDS011;3730;50.856;12.776;2022-11-15T14:15:28;6.00;;;2.80;;
7377;SDS011;3730;50.856;12.776;2022-11-15T14:17:54;4.97;;;2.80;;
7377;SDS011;3730;50.856;12.776;2022-11-15T14:23:01;11.83;;;3.40;;
7377;SDS011;3730;50.856;12.776;2022-11-15T14:25:29;8.13;;;2.80;;
7377;SDS011;3730;50.856;12.776;2022-11-15T14:30:36;10.60;;;3.30;;
7377;SDS011;3730;50.856;12.776;2022-11-15T14:33:15;6.90;;;2.80;;
7377;SDS011;3730;50.856;12.776;2022-11-15T14:35:43;12.87;;;3.60;;
7377;SDS011;3730;50.856;12.776;2022-11-15T14:38:09;9.33;;;3.57;;
7377;SDS011;3730;50.856;12.776;2022-11-15T14:40:35;11.40;;;3.20;;
7377;SDS011;3730;50.856;12.776;2022-11-15T14:43:01;9.03;;;3.10;;
7377;SDS011;3730;50.856;12.776;2022-11-15T14:45:27;9.83;;;4.20;;
7377;SDS011;3730;50.856;12.776;2022-11-15T14:47:53;6.07;;;3.70;;
7377;SDS011;3730;50.856;12.776;2022-11-15T14:50:20;9.20;;;3.50;;
7377;SDS011;3730;50.856;12.776;2022-11-15T14:52:46;29.80;;;6.67;;
7377;SDS011;3730;50.856;12.776;2022-11-15T14:55:15;7.87;;;3.63;;
7377;SDS011;3730;50.856;12.776;2022-11-15T14:57:43;14.97;;;4.73;;
7377;SDS011;3730;50.856;12.776;2022-11-15T15:00:09;12.27;;;5.43;;
7377;SDS011;3730;50.856;12.776;2022-11-15T15:02:35;16.83;;;5.97;;
7377;SDS011;3730;50.856;12.776;2022-11-15T15:05:01;13.13;;;6.17;;
7377;SDS011;3730;50.856;12.776;2022-11-15T15:07:28;10.07;;;5.13;;
7377;SDS011;3730;50.856;12.776;2022-11-15T15:09:54;11.40;;;5.27;;
7377;SDS011;3730;50.856;12.776;2022-11-15T15:12:21;10.43;;;5.07;;
7377;SDS011;3730;50.856;12.776;2022-11-15T15:14:48;9.97;;;6.30;;
7377;SDS011;3730;50.856;12.776;2022-11-15T15:17:14;12.37;;;6.20;;
7377;SDS011;3730;50.856;12.776;2022-11-15T15:19:40;13.03;;;7.23;;
7377;SDS011;3730;50.856;12.776;2022-11-15T15:22:14;12.13;;;6.67;;
7377;SDS011;3730;50.856;12.776;2022-11-15T15:24:41;8.13;;;5.37;;
7377;SDS011;3730;50.856;12.776;2022-11-15T15:27:07;6.80;;;4.47;;
7377;SDS011;3730;50.856;12.776;2022-11-15T15:29:33;9.40;;;6.07;;
7377;SDS011;3730;50.856;12.776;2022-11-15T15:31:59;14.07;;;6.07;;
7377;SDS011;3730;50.856;12.776;2022-11-15T15:34:25;10.40;;;5.83;;
7377;SDS011;3730;50.856;12.776;2022-11-15T15:39:35;5.97;;;4.17;;
7377;SDS011;3730;50.856;12.776;2022-11-15T15:42:01;7.73;;;4.17;;
7377;SDS011;3730;50.856;12.776;2022-11-15T15:44:28;9.20;;;4.77;;
7377;SDS011;3730;50.856;12.776;2022-11-15T15:46:54;7.20;;;4.57;;
7377;SDS011;3730;50.856;12.776;2022-11-15T15:49:22;6.77;;;4.33;;
7377;SDS011;3730;50.856;12.776;2022-11-15T15:51:49;8.57;;;6.00;;
7377;SDS011;3730;50.856;12.776;2022-11-15T15:54:15;13.37;;;7.20;;
7377;SDS011;3730;50.856;12.776;2022-11-15T15:56:41;10.10;;;6.50;;
7377;SDS011;3730;50.856;12.776;2022-11-15T15:59:07;7.83;;;5.73;;
7377;SDS011;3730;50.856;12.776;2022-11-15T16:01:33;8.00;;;4.93;;
7377;SDS011;3730;50.856;12.776;2022-11-15T16:03:59;5.97;;;4.17;;
7377;SDS011;3730;50.856;12.776;2022-11-15T16:06:46;7.37;;;4.27;;
7377;SDS011;3730;50.856;12.776;2022-11-15T16:09:14;6.30;;;3.97;;
7377;SDS011;3730;50.856;12.776;2022-11-15T16:11:41;6.80;;;4.00;;
7377;SDS011;3730;50.856;12.776;2022-11-15T16:14:08;4.73;;;3.77;;
7377;SDS011;3730;50.856;12.776;2022-11-15T16:16:34;4.90;;;3.40;;
7377;SDS011;3730;50.856;12.776;2022-11-15T16:19:00;5.03;;;3.87;;
7377;SDS011;3730;50.856;12.776;2022-11-15T16:21:26;5.17;;;3.80;;
7377;SDS011;3730;50.856;12.776;2022-11-15T16:23:52;5.67;;;4.03;;
7377;SDS011;3730;50.856;12.776;2022-11-15T16:26:23;7.47;;;4.43;;
7377;SDS011;3730;50.856;12.776;2022-11-15T16:28:49;6.07;;;4.00;;
7377;SDS011;3730;50.856;12.776;2022-11-15T16:31:16;8.27;;;4.43;;
7377;SDS011;3730;50.856;12.776;2022-11-15T16:33:43;5.77;;;4.57;;
7377;SDS011;3730;50.856;12.776;2022-11-15T16:36:14;5.03;;;4.53;;
7377;SDS011;3730;50.856;12.776;2022-11-15T16:38:43;7.57;;;4.63;;
7377;SDS011;3730;50.856;12.776;2022-11-15T16:41:09;6.27;;;4.40;;
7377;SDS011;3730;50.856;12.776;2022-11-15T16:43:35;7.53;;;4.53;;
7377;SDS011;3730;50.856;12.776;2022-11-15T16:46:11;7.70;;;5.03;;
7377;SDS011;3730;50.856;12.776;2022-11-15T16:48:38;7.70;;;5.53;;
7377;SDS011;3730;50.856;12.776;2022-11-15T16:51:04;9.93;;;5.90;;
7377;SDS011;3730;50.856;12.776;2022-11-15T16:53:30;9.90;;;6.33;;
7377;SDS011;3730;50.856;12.776;2022-11-15T16:55:56;8.60;;;5.17;;
7377;SDS011;3730;50.856;12.776;2022-11-15T16:58:22;5.43;;;4.47;;